Time;durP1;ratioP1;P1;durP2;ratioP2;P2;SDS_P1;SDS_P2;PMS_P1;PMS_P2;Temp;Humidity;BMP_temperature;BMP_pressure;BME280_temperature;BME280_humidity;BME280_pressure;Samples;Min_cycle;Max_cycle;Signal;HPM_P1;HPM_P2
2024/04/05 00:02:13;;;;;;;8.80;3.30;;;;;;;7.68;54.87;100753.74;105678;1262;60375;-59
2024/04/05 00:04:41;;;;;;;4.30;1.50;;;;;;;7.61;54.95;100756.08;104743;1262;64951;-60
2024/04/05 00:07:08;;;;;;;4.70;1.40;;;;;;;7.55;55.09;100758.23;104816;1264;70709;-61
2024/04/05 00:09:39;;;;;;;6.40;1.90;;;;;;;7.50;55.24;100761.86;104714;1262;63965;-59
2024/04/05 00:12:07;;;;;;;5.30;1.80;;;;;;;7.45;55.48;100764.77;105092;1259;60576;-60
2024/04/05 00:14:35;;;;;;;5.40;2.40;;;;;;;7.41;55.47;100764.48;104868;1262;60462;-60
2024/04/05 00:17:02;;;;;;;4.90;1.90;;;;;;;7.36;55.52;100763.20;104793;1265;65033;-57
2024/04/05 00:19:30;;;;;;;5.80;1.40;;;;;;;7.32;55.60;100767.48;104880;1259;61955;-58
2024/04/05 00:21:57;;;;;;;4.80;1.80;;;;;;;7.28;55.83;100770.33;105472;1263;62453;-57
2024/04/05 00:24:25;;;;;;;5.90;1.50;;;;;;;7.23;55.90;100772.52;105280;1260;60505;-57
2024/04/05 00:26:52;;;;;;;5.20;1.70;;;;;;;7.15;55.90;100770.21;104747;1265;60472;-58
2024/04/05 00:29:20;;;;;;;4.10;1.10;;;;;;;7.07;55.67;100769.27;106479;1260;71890;-60
2024/04/05 00:31:47;;;;;;;7.50;2.90;;;;;;;7.01;55.59;100770.00;104688;1265;60485;-58
2024/04/05 00:34:15;;;;;;;5.70;1.60;;;;;;;6.96;55.49;100768.75;104800;1260;63835;-58
2024/04/05 00:36:42;;;;;;;5.80;1.90;;;;;;;6.90;55.55;100767.83;105177;1260;60786;-59
2024/04/05 00:39:10;;;;;;;6.20;2.50;;;;;;;6.85;55.63;100769.66;105059;1260;60324;-59
2024/04/05 00:41:38;;;;;;;7.30;3.00;;;;;;;6.83;55.69;100768.45;104903;1256;63666;-57
2024/04/05 00:44:05;;;;;;;5.80;2.20;;;;;;;6.80;55.76;100767.52;105964;1258;60585;-59
2024/04/05 00:46:34;;;;;;;8.70;2.10;;;;;;;6.78;55.94;100764.02;105082;1256;62487;-59
2024/04/05 00:49:02;;;;;;;4.20;1.50;;;;;;;6.83;56.11;100760.91;106794;1263;60494;-58
2024/04/05 00:51:29;;;;;;;4.70;1.80;;;;;;;6.94;56.12;100759.61;105127;1260;60430;-59
2024/04/05 00:53:57;;;;;;;4.10;1.20;;;;;;;7.04;56.04;100757.59;104850;1265;63667;-60
2024/04/05 00:56:24;;;;;;;5.40;1.70;;;;;;;7.15;55.99;100760.08;105008;1256;61853;-57
2024/04/05 00:58:52;;;;;;;5.80;2.00;;;;;;;7.27;56.08;100761.85;105089;1261;62725;-57
2024/04/05 01:01:19;;;;;;;5.50;1.90;;;;;;;7.39;55.98;100757.23;104929;1257;60399;-59
2024/04/05 01:03:47;;;;;;;5.40;2.10;;;;;;;7.47;55.92;100756.25;104970;1262;59530;-60
2024/04/05 01:06:14;;;;;;;5.50;1.90;;;;;;;7.52;55.95;100757.52;104984;1262;63698;-58
2024/04/05 01:08:42;;;;;;;4.90;1.40;;;;;;;7.56;55.92;100758.13;104898;1257;60689;-56
2024/04/05 01:11:09;;;;;;;7.80;2.50;;;;;;;7.57;55.97;100757.91;105066;1258;64465;-60
2024/04/05 01:13:37;;;;;;;7.40;1.80;;;;;;;7.59;55.84;100759.39;105084;1259;60438;-56
2024/04/05 01:16:06;;;;;;;6.20;2.60;;;;;;;7.58;55.68;100763.80;105144;1263;60556;-56
2024/04/05 01:18:33;;;;;;;5.70;1.80;;;;;;;7.56;55.80;100766.55;105205;1256;63665;-55
2024/04/05 01:21:01;;;;;;;7.30;2.40;;;;;;;7.52;55.82;100769.40;105054;1256;61575;-58
2024/04/05 01:23:29;;;;;;;6.60;2.20;;;;;;;7.50;55.88;100770.21;105362;1259;62578;-56
2024/04/05 01:25:57;;;;;;;6.00;2.10;;;;;;;7.48;55.98;100768.23;104864;1257;60560;-59
2024/04/05 01:28:25;;;;;;;7.10;2.50;;;;;;;7.45;56.00;100774.17;105027;1262;60435;-59
2024/04/05 01:30:52;;;;;;;8.60;5.30;;;;;;;7.41;56.03;100778.78;104966;1256;66056;-59
2024/04/05 01:33:20;;;;;;;4.50;2.00;;;;;;;7.36;55.99;100782.22;105009;1262;60435;-61
2024/04/05 01:35:48;;;;;;;4.90;1.30;;;;;;;7.36;56.02;100784.86;105047;1260;63689;-59
2024/04/05 01:38:15;;;;;;;4.60;1.50;;;;;;;7.37;56.02;100783.19;107445;1256;62419;-59
2024/04/05 01:40:42;;;;;;;4.00;1.30;;;;;;;7.40;56.10;100785.83;104936;1262;61519;-57
2024/04/05 01:43:10;;;;;;;8.30;4.00;;;;;;;7.44;56.10;100785.23;104877;1259;64451;-57
2024/04/05 01:45:38;;;;;;;5.50;1.90;;;;;;;7.49;56.17;100783.40;106830;1257;63179;-61
2024/04/05 01:48:08;;;;;;;6.50;2.60;;;;;;;7.54;56.14;100783.77;105222;1259;62428;-59
2024/04/05 01:50:35;;;;;;;4.80;1.80;;;;;;;7.55;56.14;100778.97;106802;1260;61265;-60
2024/04/05 01:53:03;;;;;;;14.20;2.60;;;;;;;7.55;56.23;100782.32;104893;1262;61163;-59
2024/04/05 01:55:32;;;;;;;5.10;2.00;;;;;;;7.52;56.28;100779.18;106140;1257;65729;-65
2024/04/05 01:57:59;;;;;;;6.30;2.40;;;;;;;7.50;56.41;100780.19;105304;1257;61824;-57
2024/04/05 02:00:27;;;;;;;8.20;4.70;;;;;;;7.46;56.43;100779.03;104996;1259;66933;-59
2024/04/05 02:02:55;;;;;;;4.80;1.60;;;;;;;7.42;56.38;100777.65;107858;1259;61379;-57
2024/04/05 02:05:24;;;;;;;7.00;2.30;;;;;;;7.37;56.36;100776.79;104931;1259;61361;-57
2024/04/05 02:07:51;;;;;;;22.70;2.90;;;;;;;7.30;56.44;100781.20;105653;1256;65776;-59
2024/04/05 02:10:19;;;;;;;4.70;1.90;;;;;;;7.23;56.43;100788.72;104890;1262;61220;-59
2024/04/05 02:12:46;;;;;;;6.20;2.30;;;;;;;7.15;56.57;100795.70;104834;1260;63840;-58
2024/04/05 02:15:14;;;;;;;6.00;2.30;;;;;;;7.06;56.73;100795.36;106618;1259;61292;-59
2024/04/05 02:17:41;;;;;;;5.00;2.10;;;;;;;7.01;56.82;100795.79;104898;1262;61277;-59
2024/04/05 02:20:09;;;;;;;5.00;2.10;;;;;;;6.96;56.94;100793.65;105019;1261;64523;-59
2024/04/05 02:22:36;;;;;;;8.10;5.00;;;;;;;6.92;56.94;100790.90;105111;1256;61330;-59
2024/04/05 02:25:05;;;;;;;5.10;1.90;;;;;;;6.87;57.07;100789.98;104907;1259;64336;-59
2024/04/05 02:27:33;;;;;;;5.70;2.00;;;;;;;6.89;57.11;100790.44;105407;1257;61350;-58
2024/04/05 02:30:01;;;;;;;5.80;1.60;;;;;;;6.93;57.01;100793.30;105064;1257;61356;-58
2024/04/05 02:32:28;;;;;;;4.40;1.50;;;;;;;6.95;56.99;100792.85;105122;1259;65641;-57
2024/04/05 02:34:57;;;;;;;4.50;1.30;;;;;;;6.97;57.15;100794.83;105166;1261;61807;-59
2024/04/05 02:37:24;;;;;;;5.60;1.70;;;;;;;6.99;57.23;100799.05;105692;1260;63700;-58
2024/04/05 02:39:52;;;;;;;6.90;2.20;;;;;;;7.02;57.23;100805.02;105507;1260;59817;-59
2024/04/05 02:42:19;;;;;;;4.60;1.80;;;;;;;7.01;57.37;100806.43;105113;1257;61347;-58
2024/04/05 02:44:47;;;;;;;7.80;2.70;;;;;;;7.01;57.51;100814.11;105111;1256;66206;-58
2024/04/05 02:47:14;;;;;;;6.10;2.90;;;;;;;6.98;57.46;100814.46;105070;1259;61427;-58
2024/04/05 02:49:42;;;;;;;7.30;2.90;;;;;;;6.95;57.35;100813.79;105122;1257;63735;-56
2024/04/05 02:52:09;;;;;;;5.30;2.50;;;;;;;6.90;57.28;100815.64;105173;1261;61239;-58
2024/04/05 02:54:37;;;;;;;8.30;2.80;;;;;;;6.84;57.16;100819.12;105003;1260;61123;-57
2024/04/05 02:57:04;;;;;;;4.70;1.70;;;;;;;6.76;57.13;100823.05;105087;1256;65723;-59
2024/04/05 02:59:32;;;;;;;7.10;3.10;;;;;;;6.67;57.08;100823.39;105096;1257;61272;-59
2024/04/05 03:02:00;;;;;;;8.00;2.90;;;;;;;6.60;57.16;100819.77;105613;1257;62479;-60
2024/04/05 03:04:27;;;;;;;6.30;2.90;;;;;;;6.55;57.31;100824.60;104839;1257;61403;-58
2024/04/05 03:06:55;;;;;;;9.60;2.60;;;;;;;6.50;57.38;100823.48;104859;1259;61244;-59
2024/04/05 03:09:22;;;;;;;7.50;3.20;;;;;;;6.45;57.49;100820.23;105704;1256;67547;-60
2024/04/05 03:11:50;;;;;;;9.60;5.60;;;;;;;6.40;57.46;100824.71;105824;1257;61531;-58
2024/04/05 03:14:17;;;;;;;7.70;2.70;;;;;;;6.34;57.46;100826.77;105083;1257;64274;-60
2024/04/05 03:16:45;;;;;;;4.60;1.60;;;;;;;6.35;57.65;100826.55;105218;1259;61291;-58
2024/04/05 03:19:13;;;;;;;4.30;1.40;;;;;;;6.40;57.58;100821.75;106201;1257;61105;-58
2024/04/05 03:21:40;;;;;;;6.60;2.50;;;;;;;6.47;57.67;100819.10;105085;1254;64442;-59
2024/04/05 03:24:08;;;;;;;5.60;2.50;;;;;;;6.56;57.56;100818.77;108689;1256;61333;-60
2024/04/05 03:26:37;;;;;;;3.60;1.30;;;;;;;6.65;57.38;100824.20;105554;1259;62645;-61
2024/04/05 03:29:06;;;;;;;6.50;2.50;;;;;;;6.70;57.19;100827.58;105499;1254;61433;-60
2024/04/05 03:31:34;;;;;;;5.30;1.70;;;;;;;6.70;57.12;100830.04;105592;1254;61169;-60
2024/04/05 03:34:02;;;;;;;5.40;1.90;;;;;;;6.67;57.05;100830.35;105532;1260;64464;-60
2024/04/05 03:36:29;;;;;;;5.30;1.90;;;;;;;6.64;57.01;100828.10;105543;1253;61285;-60
2024/04/05 03:39:00;;;;;;;6.40;2.60;;;;;;;6.63;57.12;100826.55;105061;1256;64140;-61
2024/04/05 03:41:28;;;;;;;8.70;3.70;;;;;;;6.61;57.01;100828.98;105611;1261;61357;-60
2024/04/05 03:43:56;;;;;;;5.40;2.50;;;;;;;6.57;56.91;100826.06;106703;1257;59696;-59
2024/04/05 03:46:24;;;;;;;5.20;2.20;;;;;;;6.51;56.85;100824.81;105289;1253;65745;-59
2024/04/05 03:48:51;;;;;;;4.80;2.00;;;;;;;6.47;56.87;100829.55;105210;1253;61344;-58
2024/04/05 03:51:19;;;;;;;5.60;1.80;;;;;;;6.43;57.08;100833.42;105222;1256;64797;-59
2024/04/05 03:53:46;;;;;;;7.10;2.60;;;;;;;6.36;57.33;100834.17;105157;1258;61935;-58
2024/04/05 03:56:14;;;;;;;6.40;2.30;;;;;;;6.31;57.55;100840.52;105209;1256;61455;-59
2024/04/05 03:58:41;;;;;;;8.10;3.30;;;;;;;6.27;57.76;100842.14;105210;1253;64459;-60
2024/04/05 04:01:09;;;;;;;9.70;4.00;;;;;;;6.24;57.78;100850.02;105241;1253;61423;-62
2024/04/05 04:03:36;;;;;;;11.80;5.60;;;;;;;6.17;57.86;100846.52;105234;1259;62418;-58
2024/04/05 04:06:04;;;;;;;8.70;4.30;;;;;;;6.12;57.95;100841.54;105166;1259;61230;-55
2024/04/05 04:08:32;;;;;;;8.60;3.40;;;;;;;6.11;57.91;100841.65;105641;1256;61164;-60
2024/04/05 04:10:59;;;;;;;4.80;2.10;;;;;;;6.13;57.98;100845.54;105060;1253;64551;-59
2024/04/05 04:13:28;;;;;;;10.10;3.30;;;;;;;6.22;57.99;100849.60;105185;1261;61250;-58
2024/04/05 04:15:56;;;;;;;5.60;2.10;;;;;;;6.32;58.08;100860.73;105165;1254;63680;-58
2024/04/05 04:18:24;;;;;;;7.10;2.00;;;;;;;6.41;58.25;100861.43;106538;1255;61346;-58
2024/04/05 04:20:52;;;;;;;10.50;4.00;;;;;;;6.53;58.32;100858.54;107375;1258;61055;-56
2024/04/05 04:23:20;;;;;;;5.50;2.20;;;;;;;6.64;58.30;100861.07;105928;1254;65744;-56
2024/04/05 04:25:47;;;;;;;7.10;3.30;;;;;;;6.71;58.37;100863.43;105021;1258;61917;-58
2024/04/05 04:28:16;;;;;;;6.40;2.80;;;;;;;6.73;58.40;100863.13;105081;1257;63659;-58
2024/04/05 04:30:45;;;;;;;6.50;2.90;;;;;;;6.76;58.50;100866.29;104948;1257;60365;-59
2024/04/05 04:33:13;;;;;;;7.70;4.70;;;;;;;6.80;58.53;100868.88;105229;1254;61347;-58
2024/04/05 04:35:45;;;;;;;7.50;3.80;;;;;;;6.84;58.63;100871.77;105102;1253;65720;-58
2024/04/05 04:38:14;;;;;;;7.60;4.30;;;;;;;6.91;58.63;100869.47;105967;1259;61226;-58
2024/04/05 04:40:42;;;;;;;9.80;3.40;;;;;;;7.00;58.81;100868.63;105120;1259;63751;-63
2024/04/05 04:43:10;;;;;;;9.70;4.10;;;;;;;7.10;58.88;100869.11;107067;1256;61174;-59
2024/04/05 04:45:37;;;;;;;7.10;2.90;;;;;;;7.20;58.88;100874.97;105131;1255;61401;-61
2024/04/05 04:48:06;;;;;;;8.20;2.70;;;;;;;7.29;58.92;100876.90;105556;1257;66185;-57
2024/04/05 04:50:33;;;;;;;11.00;7.30;;;;;;;7.37;58.97;100878.66;107950;1253;61322;-59
2024/04/05 04:53:01;;;;;;;6.60;2.40;;;;;;;7.45;58.84;100879.95;105150;1254;63761;-57
2024/04/05 04:55:28;;;;;;;7.90;3.00;;;;;;;7.54;58.68;100882.41;105063;1258;61443;-54
2024/04/05 04:57:56;;;;;;;6.90;2.30;;;;;;;7.65;58.57;100882.63;105662;1253;61345;-56
2024/04/05 05:00:24;;;;;;;6.30;2.10;;;;;;;7.77;58.54;100885.58;104946;1254;64413;-59
2024/04/05 05:02:52;;;;;;;6.20;2.30;;;;;;;7.89;58.48;100886.25;105128;1259;61388;-64
2024/04/05 05:05:19;;;;;;;6.80;2.70;;;;;;;8.04;58.54;100888.66;105106;1254;65901;-58
2024/04/05 05:07:47;;;;;;;10.20;6.50;;;;;;;8.21;58.51;100893.23;105113;1253;61281;-56
2024/04/05 05:10:14;;;;;;;7.20;3.00;;;;;;;8.34;58.38;100895.56;105186;1259;61260;-60
2024/04/05 05:12:42;;;;;;;5.10;2.30;;;;;;;8.43;58.25;100900.61;105419;1258;65919;-60
2024/04/05 05:15:10;;;;;;;5.90;2.70;;;;;;;8.49;58.10;100902.34;106326;1258;61247;-57
2024/04/05 05:17:38;;;;;;;7.70;3.90;;;;;;;8.54;57.82;100900.45;105359;1258;62790;-60
2024/04/05 05:20:08;;;;;;;9.70;6.80;;;;;;;8.60;57.78;100897.84;105321;1259;61355;-60
2024/04/05 05:22:36;;;;;;;7.30;2.20;;;;;;;8.66;57.63;100898.11;105339;1253;61320;-60
2024/04/05 05:25:04;;;;;;;9.10;5.40;;;;;;;8.71;57.51;100895.50;105263;1256;65738;-61
2024/04/05 05:27:32;;;;;;;7.80;2.00;;;;;;;8.78;57.17;100892.96;107276;1259;61242;-61
2024/04/05 05:30:03;;;;;;;7.00;2.60;;;;;;;8.84;56.57;100895.42;105216;1259;62524;-59
2024/04/05 05:32:31;;;;;;;5.80;2.30;;;;;;;8.88;55.92;100897.94;105639;1255;61341;-58
2024/04/05 05:34:59;;;;;;;6.50;3.20;;;;;;;8.96;55.54;100897.27;105056;1259;61262;-55
2024/04/05 05:37:26;;;;;;;8.80;5.10;;;;;;;9.02;55.21;100896.16;105218;1254;64442;-59
2024/04/05 05:39:54;;;;;;;8.00;2.90;;;;;;;9.09;54.97;100893.77;105213;1259;61502;-60
2024/04/05 05:42:22;;;;;;;7.00;2.60;;;;;;;9.20;54.76;100900.58;105217;1256;63871;-62
2024/04/05 05:44:49;;;;;;;9.10;5.30;;;;;;;9.35;54.70;100904.52;105730;1253;61220;-65
2024/04/05 05:47:17;;;;;;;8.40;2.90;;;;;;;9.49;54.62;100901.63;105949;1257;61352;-62
2024/04/05 05:49:44;;;;;;;8.80;5.50;;;;;;;9.61;54.38;100903.46;105077;1260;65851;-65
2024/04/05 05:52:19;;;;;;;7.00;3.10;;;;;;;9.69;54.24;100902.42;105001;1253;61894;-66
2024/04/05 05:54:47;;;;;;;7.90;5.10;;;;;;;9.76;53.86;100901.94;106462;1257;66882;-62
2024/04/05 05:57:15;;;;;;;6.20;2.20;;;;;;;9.80;53.49;100900.95;105185;1254;61309;-62
2024/04/05 05:59:42;;;;;;;10.00;5.30;;;;;;;9.83;53.29;100897.36;105313;1254;61353;-58
2024/04/05 06:02:10;;;;;;;7.60;2.60;;;;;;;9.85;53.24;100897.77;105305;1258;67902;-57
2024/04/05 06:04:40;;;;;;;8.90;5.30;;;;;;;9.88;53.31;100894.27;105257;1258;61389;-61
2024/04/05 06:07:07;;;;;;;6.00;2.20;;;;;;;9.90;53.21;100892.70;105131;1258;73208;-60
2024/04/05 06:09:35;;;;;;;6.60;2.20;;;;;;;9.91;52.94;100891.30;106180;1260;61551;-59
2024/04/05 06:12:04;;;;;;;8.10;5.00;;;;;;;9.91;52.62;100891.99;105230;1257;61959;-59
2024/04/05 06:14:31;;;;;;;4.70;1.60;;;;;;;9.91;52.66;100889.17;105633;1257;66130;-59
2024/04/05 06:16:59;;;;;;;7.20;2.20;;;;;;;9.92;52.66;100893.45;105109;1260;61334;-60
2024/04/05 06:19:26;;;;;;;7.40;4.40;;;;;;;9.95;52.89;100891.21;105107;1257;74933;-58
2024/04/05 06:21:54;;;;;;;7.30;4.30;;;;;;;9.98;52.90;100891.30;105077;1254;61363;-59
2024/04/05 06:24:21;;;;;;;6.00;2.60;;;;;;;10.03;52.55;100893.03;105138;1259;62076;-57
2024/04/05 06:26:49;;;;;;;6.60;3.20;;;;;;;10.13;52.19;100893.79;105075;1259;67681;-58
2024/04/05 06:29:17;;;;;;;4.90;1.30;;;;;;;10.21;51.71;100894.29;105102;1259;62494;-56
2024/04/05 06:31:44;;;;;;;5.10;2.80;;;;;;;10.27;51.40;100897.38;104986;1258;74908;-57
2024/04/05 06:34:13;;;;;;;6.20;2.80;;;;;;;10.31;51.25;100895.84;105047;1254;61425;-61
2024/04/05 06:36:41;;;;;;;5.30;2.60;;;;;;;10.39;51.14;100894.22;108575;1259;59030;-57
2024/04/05 06:39:08;;;;;;;5.40;2.60;;;;;;;10.47;50.59;100895.27;105073;1257;64942;-57
2024/04/05 06:41:36;;;;;;;3.30;0.90;;;;;;;10.54;49.94;100899.84;105331;1257;62523;-59
2024/04/05 06:44:04;;;;;;;5.70;2.50;;;;;;;10.60;49.36;100895.58;105184;1257;74918;-58
2024/04/05 06:46:31;;;;;;;4.10;0.90;;;;;;;10.64;49.18;100897.74;105161;1257;61362;-58
2024/04/05 06:48:59;;;;;;;6.20;2.40;;;;;;;10.66;48.76;100896.52;105126;1257;61167;-63
2024/04/05 06:51:27;;;;;;;5.50;2.00;;;;;;;10.68;48.40;100897.28;105199;1257;65011;-62
2024/04/05 06:53:55;;;;;;;5.70;2.80;;;;;;;10.69;48.26;100902.47;105162;1259;63579;-60
2024/04/05 06:56:22;;;;;;;6.50;2.60;;;;;;;10.71;48.17;100902.34;104856;1256;62875;-60
2024/04/05 06:58:50;;;;;;;2.70;0.70;;;;;;;10.73;47.91;100903.02;104950;1254;61270;-63
2024/04/05 07:01:17;;;;;;;6.30;3.10;;;;;;;10.75;47.85;100902.52;104996;1258;61350;-62
2024/04/05 07:03:45;;;;;;;3.30;0.90;;;;;;;10.76;47.84;100903.90;105150;1257;77070;-63
2024/04/05 07:06:13;;;;;;;6.30;2.90;;;;;;;10.77;47.85;100903.96;105205;1254;62170;-60
2024/04/05 07:08:41;;;;;;;6.10;1.50;;;;;;;10.82;48.13;100899.11;105461;1258;66075;-63
2024/04/05 07:11:10;;;;;;;6.90;2.90;;;;;;;10.85;48.08;100897.09;105036;1258;61282;-61
2024/04/05 07:13:37;;;;;;;3.50;1.30;;;;;;;10.90;47.92;100902.55;104978;1254;61376;-64
2024/04/05 07:16:06;;;;;;;5.90;3.20;;;;;;;10.92;47.92;100903.04;105168;1259;68554;-61
2024/04/05 07:18:33;;;;;;;4.80;1.30;;;;;;;10.95;47.99;100902.14;105127;1259;63766;-64
2024/04/05 07:21:01;;;;;;;8.60;3.10;;;;;;;11.00;47.97;100899.71;105129;1257;74936;-63
2024/04/05 07:23:28;;;;;;;4.10;1.50;;;;;;;11.05;47.78;100896.85;105101;1259;61316;-64
2024/04/05 07:25:56;;;;;;;7.40;3.00;;;;;;;11.10;47.78;100898.06;105257;1254;61268;-62
2024/04/05 07:28:28;;;;;;;9.90;3.00;;;;;;;11.15;47.71;100897.70;105800;1258;66168;-63
2024/04/05 07:30:55;;;;;;;9.40;1.40;;;;;;;11.21;47.35;100894.30;105147;1256;63588;-62
2024/04/05 07:33:23;;;;;;;6.30;2.50;;;;;;;11.26;47.48;100899.73;105208;1259;74864;-67
2024/04/05 07:35:55;;;;;;;5.80;2.90;;;;;;;11.30;47.40;100896.08;106501;1260;61212;-61
2024/04/05 07:38:25;;;;;;;4.40;1.50;;;;;;;11.35;47.24;100897.64;105961;1259;61363;-62
2024/04/05 07:41:02;;;;;;;7.70;3.10;;;;;;;11.40;47.19;100897.30;105714;1257;68585;-63
2024/04/05 07:43:30;;;;;;;6.30;3.00;;;;;;;11.44;47.24;100898.86;105097;1257;73237;-61
2024/04/05 07:45:57;;;;;;;4.00;1.10;;;;;;;11.51;47.29;100897.83;104952;1257;64962;-61
2024/04/05 07:48:25;;;;;;;6.20;2.90;;;;;;;11.58;47.30;100897.61;104857;1254;61308;-63
2024/04/05 07:50:57;;;;;;;5.60;2.70;;;;;;;11.71;47.37;100898.95;108114;1256;61125;-65
2024/04/05 07:53:25;;;;;;;4.50;1.40;;;;;;;11.90;47.02;100900.33;105092;1260;76917;-60
2024/04/05 07:55:53;;;;;;;5.90;2.80;;;;;;;12.06;46.47;100899.58;105138;1266;71940;-62
2024/04/05 07:58:20;;;;;;;5.60;2.60;;;;;;;12.21;45.98;100897.06;104932;1258;66426;-60
2024/04/05 08:00:48;;;;;;;6.40;2.70;;;;;;;12.34;45.62;100890.77;105117;1259;61349;-62
2024/04/05 08:03:16;;;;;;;5.20;1.70;;;;;;;12.48;45.74;100891.95;105216;1259;61314;-62
2024/04/05 08:05:43;;;;;;;5.50;2.50;;;;;;;12.62;45.77;100894.20;105048;1260;75756;-61
2024/04/05 08:08:12;;;;;;;6.40;2.50;;;;;;;12.78;45.74;100891.29;105137;1260;71345;-63
2024/04/05 08:10:40;;;;;;;6.90;2.20;;;;;;;12.94;45.60;100886.99;105302;1259;63853;-61
2024/04/05 08:13:07;;;;;;;4.90;2.10;;;;;;;13.09;44.97;100879.45;105247;1259;61254;-64
2024/04/05 08:15:36;;;;;;;6.00;2.90;;;;;;;13.17;44.20;100872.55;105450;1257;61384;-64
2024/04/05 08:18:04;;;;;;;7.30;2.10;;;;;;;13.20;43.83;100876.73;105450;1260;64711;-60
2024/04/05 08:20:32;;;;;;;5.80;2.50;;;;;;;13.21;43.91;100875.42;106304;1259;61974;-62
2024/04/05 08:23:00;;;;;;;4.70;2.40;;;;;;;13.23;43.68;100874.61;105445;1254;64882;-61
2024/04/05 08:25:28;;;;;;;6.90;2.60;;;;;;;13.22;43.58;100876.08;104955;1259;61298;-63
2024/04/05 08:27:55;;;;;;;5.40;2.20;;;;;;;13.24;43.53;100875.77;105209;1253;62168;-62
2024/04/05 08:30:23;;;;;;;5.70;2.50;;;;;;;13.25;43.53;100876.16;105270;1258;76864;-62
2024/04/05 08:32:53;;;;;;;5.60;2.10;;;;;;;13.27;43.24;100876.33;105969;1257;72715;-62
2024/04/05 08:35:21;;;;;;;6.60;2.40;;;;;;;13.29;42.91;100872.67;106042;1254;73664;-64
2024/04/05 08:37:48;;;;;;;7.40;2.70;;;;;;;13.31;42.59;100871.65;105297;1254;62324;-62
2024/04/05 08:40:16;;;;;;;6.10;2.70;;;;;;;13.30;42.49;100870.11;105231;1259;61294;-62
2024/04/05 08:42:45;;;;;;;6.60;2.80;;;;;;;13.32;42.76;100865.55;105294;1255;66149;-63
2024/04/05 08:45:12;;;;;;;5.70;2.50;;;;;;;13.36;42.98;100865.60;105340;1258;72895;-60
2024/04/05 08:47:40;;;;;;;6.30;2.50;;;;;;;13.41;43.32;100863.05;104942;1257;65901;-63
2024/04/05 08:50:08;;;;;;;7.70;2.60;;;;;;;13.50;43.34;100867.08;105091;1257;62480;-61
2024/04/05 08:52:36;;;;;;;5.60;2.60;;;;;;;13.59;42.86;100865.43;105236;1254;61400;-62
2024/04/05 08:55:06;;;;;;;6.80;2.70;;;;;;;13.64;41.98;100857.94;105280;1257;76659;-64
2024/04/05 08:57:35;;;;;;;7.10;3.00;;;;;;;13.65;41.76;100856.97;106182;1257;62902;-63
2024/04/05 09:00:06;;;;;;;6.00;2.50;;;;;;;13.66;42.01;100852.98;105111;1254;64910;-65
2024/04/05 09:02:34;;;;;;;5.40;2.40;;;;;;;13.69;42.14;100848.70;105787;1257;61302;-62
2024/04/05 09:05:06;;;;;;;7.00;2.50;;;;;;;13.73;41.70;100845.55;105247;1260;61343;-58
2024/04/05 09:07:35;;;;;;;5.30;2.30;;;;;;;13.78;41.84;100846.88;107133;1254;64609;-64
2024/04/05 09:10:16;;;;;;;7.10;2.80;;;;;;;13.85;42.01;100846.58;105678;1254;61206;-64
2024/04/05 09:12:51;;;;;;;5.20;2.20;;;;;;;13.91;41.58;100842.55;105316;1257;63921;-55
2024/04/05 09:15:19;;;;;;;5.50;2.30;;;;;;;13.95;41.44;100838.81;105846;1255;61355;-61
2024/04/05 09:17:48;;;;;;;5.50;2.40;;;;;;;14.01;41.52;100838.14;105829;1257;61295;-63
2024/04/05 09:20:26;;;;;;;9.70;2.70;;;;;;;14.09;41.42;100838.33;105155;1254;75637;-67
2024/04/05 09:23:05;;;;;;;6.30;2.30;;;;;;;14.16;41.20;100839.00;109170;1254;62540;-62
2024/04/05 09:25:38;;;;;;;6.30;2.20;;;;;;;14.25;41.59;100840.14;105565;1254;75006;-56
2024/04/05 09:28:20;;;;;;;8.60;3.10;;;;;;;14.29;41.38;100842.04;105605;1254;61292;-56
2024/04/05 09:30:49;;;;;;;9.30;2.60;;;;;;;14.35;41.22;100845.30;105269;1254;61355;-57
2024/04/05 09:33:20;;;;;;;5.10;2.10;;;;;;;14.40;40.76;100843.80;105301;1260;68056;-62
2024/04/05 09:35:48;;;;;;;6.00;2.10;;;;;;;14.47;40.92;100838.40;106017;1254;62629;-61
2024/04/05 09:38:17;;;;;;;6.00;2.60;;;;;;;14.56;40.97;100835.23;105521;1257;74947;-61
2024/04/05 09:40:45;;;;;;;5.70;2.10;;;;;;;14.67;40.83;100835.02;105162;1257;62388;-61
2024/04/05 09:46:14;;;;;;;5.10;1.90;;;;;;;14.56;41.07;100837.74;102257;1294;601767;-62
2024/04/05 09:48:42;;;;;;;5.00;2.20;;;;;;;14.89;40.27;100836.40;104372;1273;59846;-63
2024/04/05 09:51:13;;;;;;;5.20;2.00;;;;;;;14.98;40.07;100837.34;104342;1273;60484;-62
2024/04/05 09:53:45;;;;;;;6.10;2.10;;;;;;;15.01;39.98;100832.84;104586;1273;66395;-62
2024/04/05 09:56:18;;;;;;;6.50;2.20;;;;;;;15.08;40.20;100831.33;104584;1270;60953;-64
2024/04/05 09:58:47;;;;;;;6.90;2.30;;;;;;;15.15;40.21;100826.81;104460;1269;221949;-67
2024/04/05 10:01:15;;;;;;;5.10;2.20;;;;;;;15.21;39.71;100821.14;104691;1268;61462;-72
2024/04/05 10:03:44;;;;;;;5.00;1.90;;;;;;;15.27;39.25;100817.35;106028;1260;60411;-66
2024/04/05 10:06:13;;;;;;;4.90;2.10;;;;;;;15.33;39.31;100809.55;105679;1258;66430;-69
2024/04/05 10:08:42;;;;;;;4.60;1.80;;;;;;;15.41;38.98;100807.18;105760;1260;60403;-66
2024/04/05 10:11:14;;;;;;;5.30;2.00;;;;;;;15.48;38.86;100809.27;105958;1260;66288;-64
2024/04/05 10:13:42;;;;;;;5.10;1.80;;;;;;;15.54;38.93;100810.58;105096;1262;60652;-63
2024/04/05 10:16:10;;;;;;;4.80;2.00;;;;;;;15.63;38.83;100809.58;105271;1260;60480;-64
2024/04/05 10:18:39;;;;;;;4.70;1.80;;;;;;;15.74;38.69;100809.99;108909;1257;65747;-65
2024/04/05 10:21:08;;;;;;;5.90;1.80;;;;;;;15.84;38.87;100811.87;108863;1260;64051;-65
2024/04/05 10:23:36;;;;;;;4.70;1.80;;;;;;;15.95;38.20;100810.27;108911;1257;62861;-63
2024/04/05 10:26:05;;;;;;;5.80;1.60;;;;;;;16.04;38.02;100810.11;108907;1260;58272;-65
2024/04/05 10:28:32;;;;;;;8.20;2.20;;;;;;;16.14;37.59;100812.70;108978;1257;58440;-65
2024/04/05 10:31:02;;;;;;;4.50;1.80;;;;;;;16.23;37.29;100808.83;108959;1255;65675;-65
2024/04/05 10:33:30;;;;;;;4.20;1.80;;;;;;;16.30;37.00;100808.14;108894;1256;61841;-65
2024/04/05 10:35:59;;;;;;;4.30;1.70;;;;;;;16.38;36.87;100803.30;105378;1260;65131;-70
2024/04/05 10:38:28;;;;;;;6.40;1.90;;;;;;;16.49;37.11;100807.88;108853;1260;59078;-65
2024/04/05 10:41:09;;;;;;;5.60;1.80;;;;;;;16.61;36.63;100805.43;106146;1257;60511;-68
2024/04/05 10:43:38;;;;;;;4.10;1.60;;;;;;;16.73;36.54;100806.56;105774;1260;65680;-65
2024/04/05 10:46:05;;;;;;;7.50;1.80;;;;;;;16.85;36.12;100804.04;105802;1263;62643;-68
2024/04/05 10:48:33;;;;;;;4.90;1.80;;;;;;;16.94;35.98;100800.82;105420;1257;64120;-66
2024/04/05 10:51:04;;;;;;;7.50;2.10;;;;;;;17.01;35.51;100800.17;105380;1258;61061;-68
2024/04/05 10:53:31;;;;;;;12.70;2.50;;;;;;;17.07;35.42;100805.93;105887;1257;61043;-62
2024/04/05 10:56:01;;;;;;;5.30;2.00;;;;;;;17.10;35.42;100808.10;105252;1257;74574;-57
2024/04/05 10:58:29;;;;;;;7.50;2.00;;;;;;;17.12;35.07;100801.13;105524;1260;72899;-60
2024/04/05 11:00:56;;;;;;;6.00;2.10;;;;;;;17.14;34.97;100799.15;105068;1263;74916;-57
2024/04/05 11:03:24;;;;;;;5.00;1.80;;;;;;;17.16;35.00;100799.89;105073;1263;60579;-61
2024/04/05 11:06:02;;;;;;;4.10;1.50;;;;;;;17.18;35.17;100793.61;104977;1257;60473;-61
2024/04/05 11:08:31;;;;;;;4.90;1.80;;;;;;;17.22;34.92;100790.75;105670;1257;65328;-62
2024/04/05 11:10:59;;;;;;;7.10;2.00;;;;;;;17.27;35.25;100788.06;105422;1258;61582;-61
2024/04/05 11:13:26;;;;;;;5.70;2.00;;;;;;;17.34;35.03;100781.86;105970;1257;65008;-62
2024/04/05 11:16:02;;;;;;;6.00;2.30;;;;;;;17.43;34.86;100782.73;106539;1257;60479;-59
2024/04/05 11:18:37;;;;;;;;;;;;;;;17.52;35.10;100780.09;107276;1257;60464;-59
2024/04/05 11:21:04;;;;;;;4.70;1.70;;;;;;;17.62;35.26;100770.35;105729;1257;67349;-56
2024/04/05 11:23:32;;;;;;;6.70;2.30;;;;;;;17.72;34.88;100765.41;105269;1257;70742;-60
2024/04/05 11:26:00;;;;;;;4.90;2.00;;;;;;;17.79;34.22;100762.85;105389;1263;75078;-62
2024/04/05 11:28:29;;;;;;;5.30;1.90;;;;;;;17.87;34.17;100759.27;106080;1257;61576;-57
2024/04/05 11:30:56;;;;;;;9.70;2.00;;;;;;;17.96;33.62;100759.77;105014;1257;62256;-57